createdAt,value
2018-04-25T00:00:56.699Z,10.17
2018-04-25T00:01:56.693Z,10.28
2018-04-25T00:02:56.701Z,10.26
2018-04-25T00:03:56.416Z,10.25
2018-04-25T00:04:56.406Z,10.23
2018-04-25T00:05:56.660Z,10.28
2018-04-25T00:06:56.645Z,10.36
2018-04-25T00:07:56.635Z,10.46
2018-04-25T00:08:56.370Z,10.44
2018-04-25T00:09:56.620Z,10.49
2018-04-25T00:10:56.613Z,10.55
2018-04-25T00:11:56.600Z,10.63
2018-04-25T00:12:56.590Z,10.69
2018-04-25T00:13:56.581Z,10.66
2018-04-25T00:14:56.576Z,10.69
2018-04-25T00:15:56.406Z,10.8
2018-04-25T00:16:56.055Z,10.79
2018-04-25T00:17:56.547Z,10.77
2018-04-25T00:18:56.281Z,10.92
2018-04-25T00:19:56.272Z,10.87
2018-04-25T00:20:56.257Z,10.92
2018-04-25T00:21:56.249Z,11.06
2018-04-25T00:22:56.445Z,11.03
2018-04-25T00:23:56.489Z,11.05
2018-04-25T00:24:56.223Z,11.18
2018-04-25T00:25:56.479Z,11.12
2018-04-25T00:26:56.468Z,11.15
2018-04-25T00:27:56.213Z,11.2
2018-04-25T00:28:56.451Z,11.33
2018-04-25T00:29:56.441Z,11.34
2018-04-25T00:30:56.426Z,11.3
2018-04-25T00:31:56.163Z,11.34
2018-04-25T00:32:56.409Z,11.31
2018-04-25T00:33:56.146Z,11.39
2018-04-25T00:34:56.397Z,11.31
2018-04-25T00:35:56.130Z,11.39
2018-04-25T00:36:55.859Z,11.33
2018-04-25T00:37:56.382Z,11.38
2018-04-25T00:38:56.353Z,11.33
2018-04-25T00:39:56.090Z,11.3
2018-04-25T00:40:56.337Z,11.28
2018-04-25T00:41:56.331Z,11.21
2018-04-25T00:42:56.061Z,11.27
2018-04-25T00:43:56.313Z,11.13
2018-04-25T00:44:56.303Z,11.13
2018-04-25T00:45:56.298Z,11.09
2018-04-25T00:46:56.294Z,11.09
2018-04-25T00:47:56.283Z,11.1
2018-04-25T00:48:56.270Z,10.94
2018-04-25T00:49:56.262Z,10.94
2018-04-25T00:50:56.250Z,10.88
2018-04-25T00:51:56.242Z,10.83
2018-04-25T00:52:56.235Z,10.69
2018-04-25T00:53:55.967Z,10.65
2018-04-25T00:54:55.960Z,10.55
2018-04-25T00:55:56.205Z,10.52
2018-04-25T00:56:56.198Z,10.42
2018-04-25T00:57:56.196Z,10.35
2018-04-25T00:58:55.923Z,10.32
2018-04-25T00:59:56.174Z,10.26
2018-04-25T01:00:56.173Z,10.2
2018-04-25T01:01:56.250Z,10.13
2018-04-25T01:02:55.911Z,10.13
2018-04-25T01:03:55.878Z,10.07
2018-04-25T01:04:55.868Z,10
2018-04-25T01:05:56.122Z,10.07
2018-04-25T01:06:55.593Z,10.1
2018-04-25T01:07:56.103Z,10.07
2018-04-25T01:08:55.574Z,10.03
2018-04-25T01:09:56.084Z,9.9
2018-04-25T01:10:55.813Z,9.98
2018-04-25T01:11:56.601Z,9.93
2018-04-25T01:12:56.059Z,9.89
2018-04-25T01:13:56.053Z,9.88
2018-04-25T01:14:56.035Z,9.77
2018-04-25T01:15:55.771Z,9.78
2018-04-25T01:16:56.023Z,9.77
2018-04-25T01:17:55.749Z,9.71
2018-04-25T01:18:55.996Z,9.7
2018-04-25T01:19:56.009Z,9.66
2018-04-25T01:20:55.720Z,9.62
2018-04-25T01:21:55.968Z,9.62
2018-04-25T01:22:55.959Z,9.56
2018-04-25T01:23:55.971Z,9.52
2018-04-25T01:24:55.945Z,9.59
2018-04-25T01:25:55.673Z,9.53
2018-04-25T01:26:55.664Z,9.53
2018-04-25T01:27:55.921Z,9.53
2018-04-25T01:28:55.907Z,9.5
2018-04-25T01:29:55.897Z,9.48
2018-04-25T01:30:55.625Z,9.47
2018-04-25T01:31:55.626Z,9.44
2018-04-25T01:32:55.603Z,9.5
2018-04-25T01:33:55.356Z,9.48
2018-04-25T01:34:55.586Z,9.47
2018-04-25T01:35:55.838Z,9.41
2018-04-25T01:36:55.569Z,9.45
2018-04-25T01:37:55.556Z,9.47
2018-04-25T01:38:55.548Z,9.45
2018-04-25T01:39:55.538Z,9.48
2018-04-25T01:40:55.785Z,9.55
2018-04-25T01:41:55.779Z,9.62
2018-04-25T01:42:55.774Z,9.67
2018-04-25T01:43:55.241Z,9.75
2018-04-25T01:44:55.752Z,9.78
2018-04-25T01:45:55.738Z,9.95
2018-04-25T01:46:55.728Z,9.9
2018-04-25T01:47:55.202Z,10.1
2018-04-25T01:48:55.449Z,10.08
2018-04-25T01:49:55.439Z,10.07
2018-04-25T01:50:55.688Z,10.03
2018-04-25T01:51:55.908Z,10.15
2018-04-25T01:52:55.671Z,10.14
2018-04-25T01:53:55.400Z,10.32
2018-04-25T01:54:55.717Z,10.17
2018-04-25T01:55:55.384Z,10.31
2018-04-25T01:56:55.628Z,10.38
2018-04-25T01:57:55.635Z,10.36
2018-04-25T01:58:55.351Z,10.46
2018-04-25T01:59:55.606Z,10.47
2018-04-25T02:00:55.589Z,10.59
2018-04-25T02:01:55.065Z,10.57
2018-04-25T02:02:55.320Z,10.52
2018-04-25T02:03:55.308Z,10.57
2018-04-25T02:04:55.293Z,10.57
2018-04-25T02:05:55.283Z,10.57
2018-04-25T02:06:55.532Z,10.52
2018-04-25T02:07:55.271Z,10.58
2018-04-25T02:08:55.513Z,10.67
2018-04-25T02:09:54.988Z,10.63
2018-04-25T02:10:55.494Z,10.59
2018-04-25T02:11:55.491Z,10.67
2018-04-25T02:12:54.961Z,10.57
2018-04-25T02:13:55.470Z,10.59
2018-04-25T02:14:55.200Z,10.55
2018-04-25T02:15:55.193Z,10.72
2018-04-25T02:16:55.436Z,10.69
2018-04-25T02:17:54.913Z,10.67
2018-04-25T02:18:55.188Z,10.69
2018-04-25T02:19:55.412Z,10.67
2018-04-25T02:20:55.410Z,10.63
2018-04-25T02:21:55.132Z,10.66
2018-04-25T02:22:55.125Z,10.67
2018-04-25T02:23:55.378Z,10.66
2018-04-25T02:24:55.368Z,10.79
2018-04-25T02:25:55.356Z,10.94
2018-04-25T02:26:55.347Z,10.91
2018-04-25T02:27:55.337Z,10.97
2018-04-25T02:28:55.069Z,10.88
2018-04-25T02:29:55.059Z,10.91
2018-04-25T02:30:55.055Z,10.98
2018-04-25T02:31:55.297Z,11
2018-04-25T02:32:55.295Z,10.94
2018-04-25T02:33:55.276Z,11
2018-04-25T02:34:55.293Z,10.98
2018-04-25T02:35:55.266Z,10.98
2018-04-25T02:36:55.252Z,11.03
2018-04-25T02:37:55.253Z,11.03
2018-04-25T02:38:54.980Z,11.15
2018-04-25T02:39:54.965Z,11.1
2018-04-25T02:40:54.957Z,11.12
2018-04-25T02:41:55.209Z,11.2
2018-04-25T02:42:54.684Z,11.24
2018-04-25T02:43:55.197Z,11.23
2018-04-25T02:44:55.214Z,11.24
2018-04-25T02:45:55.193Z,11.33
2018-04-25T02:46:55.162Z,11.2
2018-04-25T02:47:55.359Z,11.23
2018-04-25T02:48:54.910Z,11.21
2018-04-25T02:49:55.138Z,11.12
2018-04-25T02:50:55.124Z,11.1
2018-04-25T02:51:54.856Z,11.08
2018-04-25T02:52:55.113Z,11.1
2018-04-25T02:53:55.099Z,11.16
2018-04-25T02:54:54.829Z,11.12
2018-04-25T02:55:54.822Z,11.16
2018-04-25T02:56:54.816Z,11.2
2018-04-25T02:57:55.060Z,11.06
2018-04-25T02:58:55.170Z,11.1
2018-04-25T02:59:54.796Z,11.06
2018-04-25T03:00:55.041Z,11.15
2018-04-25T03:01:55.231Z,11.16
2018-04-25T03:02:54.763Z,11.03
2018-04-25T03:03:54.753Z,11.06
2018-04-25T03:04:54.996Z,11.06
2018-04-25T03:05:55.002Z,11.05
2018-04-25T03:06:54.984Z,11.06
2018-04-25T03:07:54.721Z,11
2018-04-25T03:08:54.965Z,11.06
2018-04-25T03:09:54.694Z,11.05
2018-04-25T03:10:54.687Z,11
2018-04-25T03:11:54.949Z,11.06
2018-04-25T03:12:55.002Z,11.1
2018-04-25T03:13:54.921Z,11.12
2018-04-25T03:14:54.911Z,11.03
2018-04-25T03:15:54.898Z,11.09
2018-04-25T03:16:54.758Z,11.13
2018-04-25T03:17:54.621Z,11.08
2018-04-25T03:18:54.875Z,11.12
2018-04-25T03:19:54.861Z,11.18
2018-04-25T03:20:54.858Z,11.12
2018-04-25T03:21:54.327Z,11.13
2018-04-25T03:22:54.833Z,11.08
2018-04-25T03:23:54.823Z,11.12
2018-04-25T03:24:54.816Z,11.1
2018-04-25T03:25:54.552Z,11.15
2018-04-25T03:26:54.803Z,11.16
2018-04-25T03:27:54.534Z,11.05
2018-04-25T03:28:54.523Z,11.08
2018-04-25T03:29:54.513Z,11.12
2018-04-25T03:30:54.519Z,11.13
2018-04-25T03:31:54.773Z,11.16
2018-04-25T03:32:54.494Z,11.15
2018-04-25T03:33:54.477Z,11.12
2018-04-25T03:34:54.727Z,11.16
2018-04-25T03:35:54.716Z,11.08
2018-04-25T03:36:54.706Z,11.1
2018-04-25T03:37:54.702Z,11.09
2018-04-25T03:38:54.174Z,11.13
2018-04-25T03:39:54.424Z,11.15
2018-04-25T03:40:54.418Z,11.15
2018-04-25T03:41:54.665Z,11.12
2018-04-25T03:42:54.397Z,11.16
2018-04-25T03:43:54.393Z,11.12
2018-04-25T03:44:54.382Z,11.09
2018-04-25T03:45:54.627Z,11.13
2018-04-25T03:46:54.361Z,11.18
2018-04-25T03:47:54.609Z,11.15
2018-04-25T03:48:54.347Z,11.1
2018-04-25T03:49:54.339Z,11.13
2018-04-25T03:50:54.585Z,11.12
2018-04-25T03:51:54.574Z,11.13
2018-04-25T03:52:54.306Z,11.13
2018-04-25T03:53:54.569Z,11.23
2018-04-25T03:54:54.287Z,11.24
2018-04-25T03:55:54.537Z,11.34
2018-04-25T03:56:54.269Z,11.31
2018-04-25T03:57:54.259Z,11.31
2018-04-25T03:58:54.516Z,11.3
2018-04-25T03:59:54.244Z,11.35
2018-04-25T04:00:54.240Z,11.33
2018-04-25T04:01:54.226Z,11.27
2018-04-25T04:02:54.287Z,11.31
2018-04-25T04:03:54.207Z,11.28
2018-04-25T04:04:54.198Z,11.31
2018-04-25T04:05:53.934Z,11.34
2018-04-25T04:06:54.226Z,11.3
2018-04-25T04:07:54.173Z,11.38
2018-04-25T04:08:54.166Z,11.41
2018-04-25T04:09:54.151Z,11.42
2018-04-25T04:10:54.403Z,11.46
2018-04-25T04:11:53.877Z,11.46
2018-04-25T04:12:54.155Z,11.49
2018-04-25T04:13:54.120Z,11.43
2018-04-25T04:14:54.372Z,11.46
2018-04-25T04:15:54.358Z,11.41
2018-04-25T04:16:54.102Z,11.52
2018-04-25T04:17:54.083Z,11.39
2018-04-25T04:18:54.332Z,11.43
2018-04-25T04:19:54.322Z,11.48
2018-04-25T04:20:54.314Z,11.48
2018-04-25T04:21:54.309Z,11.39
2018-04-25T04:22:54.305Z,11.41
2018-04-25T04:23:54.031Z,11.45
2018-04-25T04:24:54.057Z,11.56
2018-04-25T04:25:54.015Z,11.48
2018-04-25T04:26:54.260Z,11.57
2018-04-25T04:27:54.250Z,11.6
2018-04-25T04:28:54.256Z,11.64
2018-04-25T04:29:53.736Z,11.61
2018-04-25T04:30:54.225Z,11.53
2018-04-25T04:31:54.220Z,11.67
2018-04-25T04:32:53.951Z,11.71
2018-04-25T04:33:53.944Z,11.84
2018-04-25T04:34:54.412Z,11.78
2018-04-25T04:35:53.925Z,11.82
2018-04-25T04:36:53.922Z,11.63
2018-04-25T04:37:53.907Z,11.59
2018-04-25T04:38:53.898Z,11.66
2018-04-25T04:39:54.173Z,11.66
2018-04-25T04:40:53.624Z,11.63
2018-04-25T04:41:54.127Z,11.73
2018-04-25T04:42:53.877Z,11.81
2018-04-25T04:43:53.600Z,11.81
2018-04-25T04:44:54.106Z,11.81
2018-04-25T04:45:54.099Z,11.78
2018-04-25T04:46:54.092Z,11.82
2018-04-25T04:47:54.078Z,11.82
2018-04-25T04:48:54.081Z,11.85
2018-04-25T04:49:53.804Z,11.86
2018-04-25T04:50:53.800Z,11.95
2018-04-25T04:51:54.058Z,11.88
2018-04-25T04:52:53.776Z,11.91
2018-04-25T04:53:54.046Z,12.01
2018-04-25T04:54:54.025Z,11.97
2018-04-25T04:55:53.754Z,12.07
2018-04-25T04:56:53.753Z,12.08
2018-04-25T04:57:53.997Z,12.1
2018-04-25T04:58:54.023Z,12.11
2018-04-25T04:59:54.156Z,12.08
2018-04-25T05:00:53.979Z,12.11
2018-04-25T05:01:53.968Z,12.1
2018-04-25T05:02:53.694Z,12.03
2018-04-25T05:03:53.960Z,12.1
2018-04-25T05:04:53.677Z,12.11
2018-04-25T05:05:53.938Z,12.05
2018-04-25T05:06:53.662Z,12.04
2018-04-25T05:07:53.913Z,12.1
2018-04-25T05:08:53.914Z,12.11
2018-04-25T05:09:53.895Z,12.05
2018-04-25T05:10:53.883Z,12.13
2018-04-25T05:11:53.875Z,12.08
2018-04-25T05:12:53.870Z,12.08
2018-04-25T05:13:53.912Z,12.25
2018-04-25T05:14:53.849Z,12.11
2018-04-25T05:15:54.045Z,12.11
2018-04-25T05:16:53.858Z,12.1
2018-04-25T05:17:53.834Z,12.13
2018-04-25T05:18:54.036Z,12.15
2018-04-25T05:19:53.813Z,12.16
2018-04-25T05:20:53.809Z,12.22
2018-04-25T05:21:53.798Z,12.13
2018-04-25T05:22:53.795Z,12.07
2018-04-25T05:23:53.786Z,12.16
2018-04-25T05:24:53.772Z,12.15
2018-04-25T05:25:53.762Z,12.15
2018-04-25T05:26:53.241Z,12.18
2018-04-25T05:27:53.744Z,12.26
2018-04-25T05:28:53.482Z,12.25
2018-04-25T05:29:53.477Z,12.23
2018-04-25T05:30:53.724Z,12.25
2018-04-25T05:31:53.851Z,12.28
2018-04-25T05:32:53.707Z,12.26
2018-04-25T05:33:53.699Z,12.26
2018-04-25T05:34:53.442Z,12.31
2018-04-25T05:35:53.682Z,12.36
2018-04-25T05:36:53.676Z,12.38
2018-04-25T05:37:53.406Z,12.36
2018-04-25T05:38:53.797Z,12.33
2018-04-25T05:39:53.393Z,12.44
2018-04-25T05:40:53.646Z,12.44
2018-04-25T05:41:53.641Z,12.4
2018-04-25T05:42:53.640Z,12.4
2018-04-25T05:43:53.360Z,12.47
2018-04-25T05:44:53.348Z,12.53
2018-04-25T05:45:53.349Z,12.61
2018-04-25T05:46:53.598Z,12.63
2018-04-25T05:47:53.588Z,12.59
2018-04-25T05:48:53.319Z,12.73
2018-04-25T05:49:53.310Z,12.7
2018-04-25T05:50:53.308Z,12.77
2018-04-25T05:51:53.299Z,12.74
2018-04-25T05:52:53.293Z,12.86
2018-04-25T05:53:53.541Z,12.88
2018-04-25T05:54:53.571Z,12.89
2018-04-25T05:55:53.527Z,12.95
2018-04-25T05:56:53.516Z,12.89
2018-04-25T05:57:53.895Z,12.96
2018-04-25T05:58:53.501Z,13.06
2018-04-25T05:59:53.499Z,13.03
2018-04-25T06:00:53.484Z,13.1
2018-04-25T06:01:53.476Z,13.09
2018-04-25T06:02:53.463Z,13.19
2018-04-25T06:03:53.461Z,13.2
2018-04-25T06:04:53.453Z,13.24
2018-04-25T06:05:53.448Z,13.21
2018-04-25T06:06:53.181Z,13.24
2018-04-25T06:07:53.453Z,13.16
2018-04-25T06:08:53.423Z,13.25
2018-04-25T06:09:53.159Z,13.27
2018-04-25T06:10:53.150Z,13.31
2018-04-25T06:11:53.144Z,13.32
2018-04-25T06:12:53.140Z,13.37
2018-04-25T06:13:53.135Z,13.4
2018-04-25T06:14:53.393Z,13.45
2018-04-25T06:15:53.113Z,13.47
2018-04-25T06:16:53.364Z,13.47
2018-04-25T06:17:53.362Z,13.48
2018-04-25T06:18:53.092Z,13.53
2018-04-25T06:19:53.362Z,13.5
2018-04-25T06:20:53.339Z,13.53
2018-04-25T06:21:53.328Z,13.63
2018-04-25T06:22:53.319Z,13.66
2018-04-25T06:23:53.320Z,13.63
2018-04-25T06:24:53.313Z,13.69
2018-04-25T06:25:53.300Z,13.76
2018-04-25T06:26:53.296Z,13.76
2018-04-25T06:27:53.032Z,13.78
2018-04-25T06:28:53.287Z,13.84
2018-04-25T06:29:53.271Z,13.84
2018-04-25T06:30:53.009Z,13.9
2018-04-25T06:31:53.274Z,13.84
2018-04-25T06:32:52.994Z,13.86
2018-04-25T06:33:53.254Z,13.94
2018-04-25T06:34:53.239Z,14.03
2018-04-25T06:35:52.972Z,14.06
2018-04-25T06:36:52.968Z,14.23
2018-04-25T06:37:52.958Z,14.3
2018-04-25T06:38:52.955Z,14.42
2018-04-25T06:39:53.208Z,14.49
2018-04-25T06:40:52.940Z,14.57
2018-04-25T06:41:52.938Z,14.67
2018-04-25T06:42:53.182Z,14.85
2018-04-25T06:43:53.191Z,15.25
2018-04-25T06:44:52.803Z,15.55
2018-04-25T06:45:52.914Z,16.14
2018-04-25T06:46:53.161Z,16.4
2018-04-25T06:47:53.152Z,16.77
2018-04-25T06:48:52.910Z,17.13
2018-04-25T06:49:53.104Z,17.55
2018-04-25T06:50:52.877Z,18.17
2018-04-25T06:51:53.134Z,18.65
2018-04-25T06:52:52.868Z,19
2018-04-25T06:53:52.606Z,19.55
2018-04-25T06:54:52.861Z,20.16
2018-04-25T06:55:53.118Z,20.78
2018-04-25T06:56:53.576Z,21.28
2018-04-25T06:57:52.849Z,21.48
2018-04-25T06:58:53.123Z,21.74
2018-04-25T06:59:52.842Z,21.94
2018-04-25T07:00:53.097Z,21.96
2018-04-25T07:01:53.094Z,22.27
2018-04-25T07:02:52.835Z,22.46
2018-04-25T07:03:52.839Z,22.6
2018-04-25T07:04:52.836Z,22.63
2018-04-25T07:05:52.834Z,22.84
2018-04-25T07:06:52.829Z,23.12
2018-04-25T07:07:52.619Z,23.53
2018-04-25T07:08:52.828Z,23.52
2018-04-25T07:09:52.826Z,23.47
2018-04-25T07:10:52.825Z,23.62
2018-04-25T07:11:53.084Z,23.99
2018-04-25T07:12:52.821Z,24.37
2018-04-25T07:13:53.085Z,24.46
2018-04-25T07:14:52.822Z,24.46
2018-04-25T07:15:53.095Z,24.48
2018-04-25T07:16:53.079Z,24.63
2018-04-25T07:17:53.083Z,24.44
2018-04-25T07:18:53.088Z,24.14
2018-04-25T07:19:52.829Z,23.71
2018-04-25T07:20:53.091Z,23
2018-04-25T07:21:53.090Z,23
2018-04-25T07:22:52.829Z,23.15
2018-04-25T07:23:53.410Z,23.06
2018-04-25T07:24:52.844Z,22.86
2018-04-25T07:25:52.830Z,22.99
2018-04-25T07:26:52.573Z,23.26
2018-04-25T07:27:53.095Z,23.6
2018-04-25T07:28:52.575Z,24.02
2018-04-25T07:29:52.832Z,24.44
2018-04-25T07:30:52.845Z,24.67
2018-04-25T07:31:53.094Z,24.69
2018-04-25T07:32:52.833Z,24.15
2018-04-25T07:33:52.583Z,23.19
2018-04-25T07:34:53.097Z,22.23
2018-04-25T07:35:52.578Z,21.85
2018-04-25T07:36:53.097Z,21.82
2018-04-25T07:37:53.101Z,21.78
2018-04-25T07:38:52.577Z,21.76
2018-04-25T07:39:53.102Z,21.78
2018-04-25T07:40:52.838Z,21.9
2018-04-25T07:41:53.178Z,21.9
2018-04-25T07:42:53.053Z,21.67
2018-04-25T07:43:52.835Z,21.23
2018-04-25T07:44:53.101Z,21.06
2018-04-25T07:45:52.833Z,20.75
2018-04-25T07:46:52.832Z,20.56
2018-04-25T07:47:53.095Z,20.42
2018-04-25T07:48:53.090Z,20.15
2018-04-25T07:49:52.855Z,20.04
2018-04-25T07:50:52.832Z,19.78
2018-04-25T07:51:53.103Z,19.61
2018-04-25T07:52:52.830Z,19.24
2018-04-25T07:53:52.564Z,18.93
2018-04-25T07:54:52.821Z,18.79
2018-04-25T07:55:52.822Z,18.74
2018-04-25T07:56:53.082Z,18.72
2018-04-25T07:57:53.249Z,18.54
2018-04-25T07:58:53.071Z,18.5
2018-04-25T07:59:52.810Z,18.56
2018-04-25T08:00:53.066Z,18.66
2018-04-25T08:01:52.551Z,18.6
2018-04-25T08:02:53.060Z,18.74
2018-04-25T08:03:52.812Z,18.71
2018-04-25T08:04:52.807Z,18.63
2018-04-25T08:05:52.817Z,18.5
2018-04-25T08:06:53.058Z,18.54
2018-04-25T08:07:53.052Z,18.56
2018-04-25T08:08:52.542Z,18.6
2018-04-25T08:09:52.792Z,18.63
2018-04-25T08:10:53.050Z,18.76
2018-04-25T08:11:52.530Z,18.96
2018-04-25T08:12:52.785Z,19.09
2018-04-25T08:13:52.525Z,19.25
2018-04-25T08:14:52.781Z,19.34
2018-04-25T08:15:52.780Z,19.35
2018-04-25T08:16:53.037Z,19.23
2018-04-25T08:17:52.566Z,19.09
2018-04-25T08:18:52.779Z,18.97
2018-04-25T08:19:53.049Z,18.82
2018-04-25T08:20:52.771Z,18.74
2018-04-25T08:21:52.774Z,18.66
2018-04-25T08:22:53.029Z,18.44
2018-04-25T08:23:53.284Z,18.32
2018-04-25T08:24:52.769Z,18.36
2018-04-25T08:25:52.505Z,18.34
2018-04-25T08:26:52.503Z,18.26
2018-04-25T08:27:52.756Z,18.13
2018-04-25T08:28:53.015Z,18.17
2018-04-25T08:29:53.015Z,18.11
2018-04-25T08:30:53.009Z,18.02
2018-04-25T08:31:52.491Z,18.16
2018-04-25T08:32:52.491Z,18.23
2018-04-25T08:33:52.745Z,18.31
2018-04-25T08:34:52.485Z,18.26
2018-04-25T08:35:52.998Z,18.26
2018-04-25T08:36:52.962Z,18.23
2018-04-25T08:37:52.738Z,18.21
2018-04-25T08:38:52.993Z,17.98
2018-04-25T08:39:52.989Z,17.99
2018-04-25T08:40:52.730Z,18.06
2018-04-25T08:41:52.991Z,18.06
2018-04-25T08:42:53.186Z,18.08
2018-04-25T08:43:52.730Z,18.08
2018-04-25T08:44:53.407Z,17.99
2018-04-25T08:45:52.462Z,18.01
2018-04-25T08:46:52.999Z,17.99
2018-04-25T08:47:52.983Z,18.05
2018-04-25T08:48:52.709Z,18.02
2018-04-25T08:49:52.967Z,18.16
2018-04-25T08:50:52.971Z,18.29
2018-04-25T08:51:52.976Z,18.53
2018-04-25T08:52:52.443Z,18.65
2018-04-25T08:53:52.957Z,18.68
2018-04-25T08:54:52.694Z,18.65
2018-04-25T08:55:52.959Z,18.51
2018-04-25T08:56:52.439Z,18.51
2018-04-25T08:57:53.093Z,18.61
2018-04-25T08:58:52.701Z,18.51
2018-04-25T08:59:52.425Z,18.61
2018-04-25T09:00:52.940Z,18.66
2018-04-25T09:01:52.420Z,18.54
2018-04-25T09:02:52.679Z,18.5
2018-04-25T09:03:52.896Z,18.36
2018-04-25T09:04:52.968Z,18.21
2018-04-25T09:05:52.782Z,18.24
2018-04-25T09:06:52.926Z,18.32
2018-04-25T09:07:52.940Z,18.5
2018-04-25T09:08:52.662Z,18.72
2018-04-25T09:09:52.922Z,18.87
2018-04-25T09:10:52.934Z,18.89
2018-04-25T09:11:52.656Z,18.78
2018-04-25T09:12:52.919Z,18.65
2018-04-25T09:13:52.913Z,18.41
2018-04-25T09:14:52.647Z,18.19
2018-04-25T09:15:52.958Z,17.9
2018-04-25T09:16:52.900Z,17.71
2018-04-25T09:17:52.899Z,17.38
2018-04-25T09:18:52.381Z,17.17
2018-04-25T09:19:52.651Z,17.07
2018-04-25T09:20:52.638Z,16.9
2018-04-25T09:21:52.831Z,16.97
2018-04-25T09:22:52.979Z,17.03
2018-04-25T09:23:52.631Z,17.09
2018-04-25T09:24:52.880Z,17.3
2018-04-25T09:25:52.882Z,17.39
2018-04-25T09:26:52.616Z,17.42
2018-04-25T09:27:52.613Z,17.52
2018-04-25T09:28:52.606Z,17.57
2018-04-25T09:29:52.604Z,17.54
2018-04-25T09:30:52.342Z,17.52
2018-04-25T09:31:52.853Z,17.55
2018-04-25T09:32:52.596Z,17.54
2018-04-25T09:33:52.591Z,17.69
2018-04-25T09:34:52.846Z,17.77
2018-04-25T09:35:52.844Z,17.86
2018-04-25T09:36:52.844Z,17.96
2018-04-25T09:37:52.321Z,18.13
2018-04-25T09:38:52.841Z,17.98
2018-04-25T09:39:52.832Z,17.95
2018-04-25T09:40:52.573Z,17.98
2018-04-25T09:41:52.311Z,17.98
2018-04-25T09:42:52.823Z,18.17
2018-04-25T09:43:52.305Z,18.17
2018-04-25T09:44:52.321Z,18.2
2018-04-25T09:45:52.902Z,18.21
2018-04-25T09:46:52.813Z,18.19
2018-04-25T09:47:52.297Z,18.23
2018-04-25T09:48:52.805Z,18.19
2018-04-25T09:49:52.547Z,18.23
2018-04-25T09:50:52.805Z,18.11
2018-04-25T09:51:53.031Z,18.05
2018-04-25T09:52:52.793Z,17.87
2018-04-25T09:53:52.847Z,17.96
2018-04-25T09:54:52.535Z,17.96
2018-04-25T09:55:52.793Z,18.03
2018-04-25T09:56:52.527Z,18.2
2018-04-25T09:57:52.898Z,18.35
2018-04-25T09:58:52.842Z,18.57
2018-04-25T09:59:52.678Z,18.69
2018-04-25T10:00:52.794Z,18.84
2018-04-25T10:01:52.778Z,18.97
2018-04-25T10:02:52.786Z,18.94
2018-04-25T10:03:52.529Z,19.05
2018-04-25T10:04:52.777Z,19
2018-04-25T10:05:52.504Z,19.05
2018-04-25T10:06:52.763Z,18.97
2018-04-25T10:07:52.502Z,18.82
2018-04-25T10:08:52.761Z,18.69
2018-04-25T10:09:52.754Z,18.61
2018-04-25T10:10:52.958Z,18.47
2018-04-25T10:11:52.493Z,18.34
2018-04-25T10:12:52.488Z,18.23
2018-04-25T10:13:52.488Z,18.03
2018-04-25T10:14:52.484Z,17.9
2018-04-25T10:15:52.486Z,17.79
2018-04-25T10:16:52.739Z,17.68
2018-04-25T10:17:52.282Z,17.62
2018-04-25T10:18:52.730Z,17.69
2018-04-25T10:19:52.755Z,17.98
2018-04-25T10:20:52.476Z,18.2
2018-04-25T10:21:52.732Z,18.32
2018-04-25T10:22:52.723Z,18.59
2018-04-25T10:23:52.851Z,18.96
2018-04-25T10:24:52.735Z,19.06
2018-04-25T10:25:52.732Z,19.17
2018-04-25T10:26:52.717Z,19.25
2018-04-25T10:27:52.716Z,19.43
2018-04-25T10:28:52.192Z,19.55
2018-04-25T10:29:52.742Z,19.46
2018-04-25T10:30:52.447Z,19.19
2018-04-25T10:31:52.443Z,19.09
2018-04-25T10:32:52.440Z,18.89
2018-04-25T10:33:52.440Z,18.61
2018-04-25T10:34:52.700Z,18.41
2018-04-25T10:35:52.179Z,18.34
2018-04-25T10:36:52.654Z,18.19
2018-04-25T10:37:52.437Z,18.05
2018-04-25T10:38:52.849Z,17.92
2018-04-25T10:39:52.433Z,17.86
2018-04-25T10:40:52.700Z,17.76
2018-04-25T10:41:52.423Z,17.6
2018-04-25T10:42:52.159Z,17.58
2018-04-25T10:43:52.684Z,17.6
2018-04-25T10:44:52.664Z,17.68
2018-04-25T10:45:52.682Z,17.92
2018-04-25T10:46:52.405Z,18.36
2018-04-25T10:47:52.402Z,18.41
2018-04-25T10:48:52.401Z,18.66
2018-04-25T10:49:52.668Z,18.71
2018-04-25T10:50:52.392Z,18.82
2018-04-25T10:51:52.657Z,18.81
2018-04-25T10:52:52.648Z,18.69
2018-04-25T10:53:52.390Z,18.66
2018-04-25T10:54:52.604Z,18.38
2018-04-25T10:55:52.645Z,18.27
2018-04-25T10:56:52.637Z,18.05
2018-04-25T10:57:52.377Z,17.92
2018-04-25T10:58:52.636Z,17.81
2018-04-25T10:59:52.648Z,17.76
2018-04-25T11:00:52.629Z,17.65
2018-04-25T11:01:52.625Z,17.47
2018-04-25T11:02:52.623Z,17.36
2018-04-25T11:03:52.364Z,17.35
2018-04-25T11:04:52.366Z,17.39
2018-04-25T11:05:52.369Z,17.42
2018-04-25T11:06:52.350Z,17.45
2018-04-25T11:07:52.606Z,17.55
2018-04-25T11:08:52.605Z,17.68
2018-04-25T11:09:52.602Z,17.86
2018-04-25T11:10:52.340Z,17.98
2018-04-25T11:11:52.599Z,18.05
2018-04-25T11:12:52.592Z,18.02
2018-04-25T11:13:52.593Z,18.03
2018-04-25T11:14:52.334Z,18.02
2018-04-25T11:15:52.603Z,18.1
2018-04-25T11:16:52.582Z,18.1
2018-04-25T11:17:52.584Z,18.03
2018-04-25T11:18:52.322Z,18.05
2018-04-25T11:19:52.574Z,17.94
2018-04-25T11:20:52.574Z,17.83
2018-04-25T11:21:52.567Z,17.71
2018-04-25T11:22:52.322Z,17.65
2018-04-25T11:23:52.561Z,17.66
2018-04-25T11:24:52.621Z,17.54
2018-04-25T11:25:52.307Z,17.54
2018-04-25T11:26:52.295Z,17.5
2018-04-25T11:27:52.293Z,17.52
2018-04-25T11:28:52.289Z,17.42
2018-04-25T11:29:52.566Z,17.47
2018-04-25T11:30:52.028Z,17.47
2018-04-25T11:31:52.712Z,17.49
2018-04-25T11:32:52.536Z,17.5
2018-04-25T11:33:52.542Z,17.55
2018-04-25T11:34:52.543Z,17.54
2018-04-25T11:35:52.269Z,17.65
2018-04-25T11:36:52.529Z,17.81
2018-04-25T11:37:52.527Z,17.8
2018-04-25T11:38:52.519Z,17.9
2018-04-25T11:39:52.515Z,18.01
2018-04-25T11:40:52.521Z,18.2
2018-04-25T11:41:52.252Z,18.24
2018-04-25T11:42:51.993Z,18.32
2018-04-25T11:43:52.247Z,18.54
2018-04-25T11:44:51.985Z,18.56
2018-04-25T11:45:52.246Z,18.49
2018-04-25T11:46:52.240Z,18.61
2018-04-25T11:47:52.233Z,18.82
2018-04-25T11:48:52.496Z,19
2018-04-25T11:49:52.497Z,18.96
2018-04-25T11:50:52.488Z,18.96
2018-04-25T11:51:52.230Z,18.91
2018-04-25T11:52:52.223Z,18.9
2018-04-25T11:53:52.221Z,18.91
2018-04-25T11:54:52.476Z,18.91
2018-04-25T11:55:52.480Z,19.06
2018-04-25T11:56:52.471Z,19.25
2018-04-25T11:57:52.475Z,19.16
2018-04-25T11:58:52.469Z,19.13
2018-04-25T11:59:52.476Z,18.96
2018-04-25T12:00:52.463Z,18.94
2018-04-25T12:01:52.205Z,19
2018-04-25T12:02:52.703Z,18.81
2018-04-25T12:03:52.473Z,18.69
2018-04-25T12:04:52.506Z,18.65
2018-04-25T12:05:52.471Z,18.42
2018-04-25T12:06:52.452Z,18.36
2018-04-25T12:07:52.190Z,18.38
2018-04-25T12:08:52.466Z,18.35
2018-04-25T12:09:52.426Z,18.5
2018-04-25T12:10:52.443Z,18.51
2018-04-25T12:11:52.179Z,18.47
2018-04-25T12:12:52.440Z,18.41
2018-04-25T12:13:52.178Z,18.36
2018-04-25T12:14:52.173Z,18.39
2018-04-25T12:15:52.175Z,18.32
2018-04-25T12:16:52.167Z,18.26
2018-04-25T12:17:52.431Z,18.26
2018-04-25T12:18:52.333Z,18.19
2018-04-25T12:19:52.212Z,18.17
2018-04-25T12:20:52.416Z,18.08
2018-04-25T12:21:52.416Z,18.06
2018-04-25T12:22:52.409Z,18.03
2018-04-25T12:23:52.629Z,18.02
2018-04-25T12:24:52.405Z,18.05
2018-04-25T12:25:52.402Z,18.17
2018-04-25T12:26:52.621Z,18.16
2018-04-25T12:27:52.403Z,18.17
2018-04-25T12:28:52.397Z,18.19
2018-04-25T12:29:52.393Z,18.1
2018-04-25T12:30:52.387Z,18.08
2018-04-25T12:31:51.870Z,18.02
2018-04-25T12:32:52.393Z,17.88
2018-04-25T12:33:51.866Z,17.77
2018-04-25T12:34:52.126Z,17.66
2018-04-25T12:35:52.521Z,17.65
2018-04-25T12:36:52.373Z,17.73
2018-04-25T12:37:52.379Z,17.68
2018-04-25T12:38:52.109Z,17.69
2018-04-25T12:39:52.367Z,17.79
2018-04-25T12:40:52.399Z,17.9
2018-04-25T12:41:52.366Z,17.96
2018-04-25T12:42:52.356Z,18.16
2018-04-25T12:43:52.352Z,18.21
2018-04-25T12:44:52.091Z,18.34
2018-04-25T12:45:52.425Z,18.16
2018-04-25T12:46:52.362Z,18.2
2018-04-25T12:47:52.345Z,18.06
2018-04-25T12:48:51.822Z,18.24
2018-04-25T12:49:52.333Z,18.2
2018-04-25T12:50:52.334Z,18.21
2018-04-25T12:51:52.076Z,18.36
2018-04-25T12:52:52.132Z,18.49
2018-04-25T12:53:52.383Z,18.72
2018-04-25T12:54:52.325Z,18.79
2018-04-25T12:55:52.543Z,18.82
2018-04-25T12:56:51.800Z,18.97
2018-04-25T12:57:52.058Z,19.12